Time;durP1;ratioP1;P1;durP2;ratioP2;P2;SDS_P1;SDS_P2;PMS_P1;PMS_P2;Temp;Humidity;BMP_temperature;BMP_pressure;BME280_temperature;BME280_humidity;BME280_pressure;Samples;Min_cycle;Max_cycle;Signal;HPM_P1;HPM_P2
2023/09/29 00:00:41;;;;;;;70.45;66.57;;;20.90;99.90;;;;;;5049996;28;20033;-71
2023/09/29 00:03:08;;;;;;;72.55;68.72;;;20.90;99.90;;;;;;5052163;28;20041;-71
2023/09/29 00:05:35;;;;;;;81.82;77.28;;;20.90;99.90;;;;;;5049989;28;20041;-71
2023/09/29 00:08:01;;;;;;;78.63;74.03;;;20.90;99.90;;;;;;5051350;28;20498;-71
2023/09/29 00:10:27;;;;;;;80.10;75.13;;;20.90;99.90;;;;;;5051248;28;20036;-71
2023/09/29 00:12:53;;;;;;;83.43;78.50;;;20.90;99.90;;;;;;5051800;28;20047;-71
2023/09/29 00:15:19;;;;;;;89.78;84.68;;;20.90;99.90;;;;;;5050870;28;20056;-71
2023/09/29 00:17:45;;;;;;;83.57;78.93;;;20.90;99.90;;;;;;5051921;28;20069;-71
2023/09/29 00:20:23;;;;;;;99.40;93.75;;;20.90;99.90;;;;;;5050487;28;20403;-71
2023/09/29 00:22:56;;;;;;;94.85;89.47;;;20.90;99.90;;;;;;5051585;28;20044;-70
2023/09/29 00:25:23;;;;;;;84.85;79.55;;;21.00;99.90;;;;;;5051196;28;20025;-70
2023/09/29 00:27:50;;;;;;;92.30;86.70;;;21.00;99.90;;;;;;5051683;28;20443;-71
2023/09/29 00:30:16;;;;;;;80.80;76.00;;;21.00;99.90;;;;;;5050726;28;20052;-71
2023/09/29 00:32:47;;;;;;;83.93;78.78;;;20.90;99.90;;;;;;5051930;28;20383;-70
2023/09/29 00:35:35;;;;;;;84.22;79.18;;;20.90;99.90;;;;;;5050215;28;20049;-71
2023/09/29 00:38:00;;;;;;;78.55;73.35;;;20.90;99.90;;;;;;5051209;28;20036;-71
2023/09/29 00:40:27;;;;;;;98.13;92.15;;;21.00;99.90;;;;;;5051370;28;20029;-71
2023/09/29 00:42:54;;;;;;;75.97;71.10;;;21.00;99.90;;;;;;5033087;28;20045;-71
2023/09/29 00:45:23;;;;;;;84.93;79.35;;;21.00;99.90;;;;;;5049047;28;20044;-71
2023/09/29 00:48:08;;;;;;;83.43;78.30;;;21.00;99.90;;;;;;5051277;28;20037;-70
2023/09/29 00:50:35;;;;;;;78.97;73.68;;;21.00;99.90;;;;;;5050702;28;20048;-71
2023/09/29 00:53:09;;;;;;;80.65;75.65;;;21.00;99.90;;;;;;5051596;28;20503;-71
2023/09/29 00:55:36;;;;;;;74.57;69.65;;;20.90;99.90;;;;;;5051454;28;20048;-71
2023/09/29 00:58:02;;;;;;;78.72;73.70;;;20.90;99.90;;;;;;5050278;28;20029;-71
2023/09/29 01:03:11;;;;;;;89.25;83.50;;;20.90;99.90;;;;;;5058273;28;20029;-71
2023/09/29 01:05:44;;;;;;;76.78;71.35;;;20.90;99.90;;;;;;5050498;28;20309;-71
2023/09/29 01:08:12;;;;;;;79.32;73.72;;;20.90;99.90;;;;;;5051287;28;20044;-71
2023/09/29 01:10:39;;;;;;;86.10;79.90;;;20.80;99.90;;;;;;5049650;28;20036;-70
2023/09/29 01:13:05;;;;;;;92.65;85.82;;;20.80;99.90;;;;;;5051097;28;20048;-70
2023/09/29 01:15:33;;;;;;;90.22;83.47;;;20.80;99.90;;;;;;5050241;28;20472;-71
2023/09/29 01:18:00;;;;;;;80.60;74.57;;;20.70;99.90;;;;;;5054033;28;20522;-70
2023/09/29 01:20:30;;;;;;;81.95;75.20;;;20.70;99.90;;;;;;5054325;28;20395;-71
2023/09/29 01:22:57;;;;;;;78.20;71.68;;;20.70;99.90;;;;;;5054214;28;20484;-71
2023/09/29 01:25:23;;;;;;;76.65;70.38;;;20.70;99.90;;;;;;5054555;28;20052;-71
2023/09/29 01:27:50;;;;;;;88.10;81.25;;;20.60;99.90;;;;;;5054746;28;20036;-71
2023/09/29 01:30:18;;;;;;;86.93;79.78;;;20.70;99.90;;;;;;5053818;28;20025;-71
2023/09/29 01:32:48;;;;;;;65.68;59.75;;;20.70;99.90;;;;;;5054588;28;20048;-71
2023/09/29 01:35:21;;;;;;;66.85;60.53;;;20.60;99.90;;;;;;5054370;28;20029;-71
2023/09/29 01:37:48;;;;;;;79.55;72.43;;;20.50;99.90;;;;;;5054349;28;20480;-71
2023/09/29 01:40:15;;;;;;;78.75;71.50;;;20.50;99.90;;;;;;5053951;28;20361;-71
2023/09/29 01:42:42;;;;;;;88.20;80.65;;;20.40;99.90;;;;;;5054813;28;20384;-71
2023/09/29 01:45:15;;;;;;;73.40;66.70;;;20.50;99.90;;;;;;5054005;28;20068;-70
2023/09/29 01:47:47;;;;;;;72.35;65.22;;;20.40;99.90;;;;;;5053749;28;20041;-71
2023/09/29 01:50:15;;;;;;;71.10;64.03;;;20.40;99.90;;;;;;5053955;28;20037;-70
2023/09/29 01:52:41;;;;;;;65.32;58.33;;;20.50;99.90;;;;;;5054023;28;20029;-70
2023/09/29 01:55:16;;;;;;;75.40;68.78;;;20.40;99.90;;;;;;5052335;28;20037;-71
2023/09/29 01:57:47;;;;;;;69.45;62.22;;;20.40;99.90;;;;;;5053845;28;20049;-71
2023/09/29 02:00:20;;;;;;;67.45;60.47;;;20.40;99.90;;;;;;5053013;28;20052;-71
2023/09/29 02:02:47;;;;;;;69.90;63.05;;;20.40;99.90;;;;;;5053606;28;20395;-70
2023/09/29 02:05:13;;;;;;;82.55;74.72;;;20.30;99.90;;;;;;5053543;28;20041;-71
2023/09/29 02:07:39;;;;;;;85.10;77.55;;;20.30;99.90;;;;;;5054632;28;20036;-71
2023/09/29 02:10:09;;;;;;;85.43;77.85;;;20.30;99.90;;;;;;5053247;28;20479;-71
2023/09/29 02:12:46;;;;;;;79.93;72.00;;;20.20;99.90;;;;;;5054036;28;20036;-71
2023/09/29 02:15:16;;;;;;;68.78;61.72;;;20.20;99.90;;;;;;5052206;28;20416;-70
2023/09/29 02:17:42;;;;;;;78.68;71.15;;;20.20;99.90;;;;;;5055458;28;20021;-70
2023/09/29 02:20:14;;;;;;;65.90;59.13;;;20.30;99.90;;;;;;5053268;28;20365;-71
2023/09/29 02:22:40;;;;;;;70.60;63.80;;;20.30;99.90;;;;;;5052601;28;20025;-71
2023/09/29 02:25:07;;;;;;;63.78;57.47;;;20.20;99.90;;;;;;5053482;28;20067;-71
2023/09/29 02:27:33;;;;;;;65.40;58.90;;;20.20;99.90;;;;;;5052248;28;20048;-71
2023/09/29 02:30:00;;;;;;;73.88;66.50;;;20.20;99.90;;;;;;5051984;28;20047;-70
2023/09/29 02:32:26;;;;;;;68.70;61.88;;;20.30;99.90;;;;;;5052606;28;20033;-70
2023/09/29 02:34:55;;;;;;;73.85;66.65;;;20.20;99.90;;;;;;5053622;28;20032;-71
2023/09/29 02:37:21;;;;;;;65.70;59.45;;;20.20;99.90;;;;;;5051006;28;20037;-71
2023/09/29 02:39:47;;;;;;;71.00;64.38;;;20.20;99.90;;;;;;5053593;28;20032;-71
2023/09/29 02:42:13;;;;;;;86.75;79.20;;;20.20;99.90;;;;;;5052798;28;20029;-71
2023/09/29 02:44:40;;;;;;;83.47;76.13;;;20.20;99.90;;;;;;5052870;28;20471;-71
2023/09/29 02:47:06;;;;;;;70.30;64.53;;;20.10;99.90;;;;;;5052261;28;20036;-71
2023/09/29 02:49:33;;;;;;;76.68;69.80;;;20.10;99.90;;;;;;5052912;28;20036;-71
2023/09/29 02:52:04;;;;;;;74.60;67.90;;;20.20;99.90;;;;;;5052294;28;20041;-71
2023/09/29 02:54:30;;;;;;;68.57;62.97;;;20.20;99.90;;;;;;5053293;28;20033;-71
2023/09/29 02:56:56;;;;;;;63.97;58.25;;;20.20;99.90;;;;;;5052998;28;20096;-71
2023/09/29 02:59:24;;;;;;;67.15;60.92;;;20.10;99.90;;;;;;5052423;28;20037;-71
2023/09/29 03:01:53;;;;;;;68.57;62.45;;;20.20;99.90;;;;;;5051858;28;20044;-71
2023/09/29 03:04:19;;;;;;;89.47;82.45;;;20.20;99.90;;;;;;5052929;28;20064;-71
2023/09/29 03:06:46;;;;;;;73.00;66.68;;;20.20;99.90;;;;;;5052234;28;20029;-71
2023/09/29 03:09:13;;;;;;;80.43;73.78;;;20.20;99.90;;;;;;5052245;28;20044;-71
2023/09/29 03:11:43;;;;;;;65.55;59.47;;;20.20;99.90;;;;;;5051826;28;20072;-71
2023/09/29 03:14:10;;;;;;;73.57;66.70;;;20.20;99.90;;;;;;5051898;28;20056;-71
2023/09/29 03:16:37;;;;;;;74.15;68.20;;;20.20;99.90;;;;;;5050742;28;20518;-71
2023/09/29 03:19:03;;;;;;;69.50;63.60;;;20.10;99.90;;;;;;5052418;28;20056;-70
2023/09/29 03:21:29;;;;;;;78.38;72.32;;;20.10;99.90;;;;;;5051865;28;20021;-70
2023/09/29 03:23:56;;;;;;;82.82;76.75;;;20.10;99.90;;;;;;5052547;28;20040;-70
2023/09/29 03:26:22;;;;;;;75.38;69.32;;;20.10;99.90;;;;;;5051916;28;20041;-71
2023/09/29 03:28:54;;;;;;;83.55;77.45;;;20.00;99.90;;;;;;5051768;28;20045;-71
2023/09/29 03:31:24;;;;;;;74.65;69.05;;;20.10;99.90;;;;;;5051506;28;20033;-70
2023/09/29 03:33:52;;;;;;;59.90;55.17;;;20.00;99.90;;;;;;5052027;28;20041;-68
2023/09/29 03:36:22;;;;;;;78.35;72.88;;;20.00;99.90;;;;;;5051735;28;20041;-70
2023/09/29 03:38:48;;;;;;;82.80;76.65;;;20.00;99.90;;;;;;5051850;28;20475;-71
2023/09/29 03:41:14;;;;;;;79.03;73.30;;;20.00;99.90;;;;;;5051182;28;20033;-70
2023/09/29 03:43:41;;;;;;;69.10;63.78;;;20.00;99.90;;;;;;5051804;28;20037;-71
2023/09/29 03:46:19;;;;;;;73.55;68.40;;;20.00;99.90;;;;;;5042109;28;20400;-71
2023/09/29 03:48:47;;;;;;;67.65;62.53;;;20.00;99.90;;;;;;5051747;28;20498;-71
2023/09/29 03:51:23;;;;;;;67.43;62.00;;;19.90;99.90;;;;;;5037384;28;20049;-70
2023/09/29 03:53:55;;;;;;;71.95;66.90;;;19.90;99.90;;;;;;5029512;28;20037;-71
2023/09/29 03:56:25;;;;;;;65.55;60.50;;;19.90;99.90;;;;;;5027859;28;20025;-71
2023/09/29 03:58:53;;;;;;;75.28;70.05;;;19.90;99.90;;;;;;5030126;28;20491;-71
2023/09/29 04:01:19;;;;;;;69.65;64.28;;;19.90;99.90;;;;;;5027919;28;20040;-71
2023/09/29 04:03:47;;;;;;;69.30;64.40;;;19.90;99.90;;;;;;5029141;28;20034;-71
2023/09/29 04:06:13;;;;;;;71.90;66.35;;;19.90;99.90;;;;;;5030761;28;20037;-71
2023/09/29 04:08:39;;;;;;;70.65;65.10;;;19.80;99.90;;;;;;5032077;28;20025;-71
2023/09/29 04:11:05;;;;;;;69.93;64.82;;;19.80;99.90;;;;;;5031058;28;20033;-71
2023/09/29 04:13:32;;;;;;;75.43;69.53;;;19.80;99.90;;;;;;5031250;28;20060;-71
2023/09/29 04:16:02;;;;;;;64.45;59.53;;;19.80;99.90;;;;;;5030697;28;20600;-71
2023/09/29 04:18:28;;;;;;;64.55;59.83;;;19.90;99.90;;;;;;5031583;28;20037;-71
2023/09/29 04:20:55;;;;;;;56.85;52.35;;;19.90;99.90;;;;;;5031327;28;20034;-71
2023/09/29 04:23:21;;;;;;;67.20;62.15;;;19.80;99.90;;;;;;5032203;28;20060;-70
2023/09/29 04:25:47;;;;;;;68.95;64.22;;;19.80;99.90;;;;;;5031217;28;20045;-71
2023/09/29 04:28:13;;;;;;;70.75;65.38;;;19.70;99.90;;;;;;5031565;28;20044;-71
2023/09/29 04:30:39;;;;;;;63.17;58.58;;;19.70;99.90;;;;;;5035977;28;20033;-71
2023/09/29 04:33:05;;;;;;;60.33;55.63;;;19.70;99.90;;;;;;5051278;28;20025;-71
2023/09/29 04:35:31;;;;;;;71.63;66.50;;;19.70;99.90;;;;;;5050374;28;20037;-71
2023/09/29 04:37:57;;;;;;;72.03;67.20;;;19.70;99.90;;;;;;5051235;28;20029;-71
2023/09/29 04:40:23;;;;;;;67.55;62.67;;;19.70;99.90;;;;;;5050945;28;20025;-71
2023/09/29 04:42:51;;;;;;;51.75;47.40;;;19.80;99.90;;;;;;5051563;28;20021;-71
2023/09/29 04:45:17;;;;;;;68.40;63.40;;;19.80;99.90;;;;;;5050535;28;20053;-71
2023/09/29 04:47:44;;;;;;;64.05;59.38;;;19.70;99.90;;;;;;5051363;28;20025;-71
2023/09/29 04:50:10;;;;;;;57.75;53.25;;;19.70;99.90;;;;;;5050353;28;20116;-72
2023/09/29 04:52:36;;;;;;;57.00;51.92;;;19.70;99.90;;;;;;5054211;28;20032;-71
2023/09/29 04:55:03;;;;;;;64.05;58.88;;;19.60;99.90;;;;;;5054686;28;20033;-71
2023/09/29 04:57:29;;;;;;;68.95;63.67;;;19.70;99.90;;;;;;5055229;28;20044;-71
2023/09/29 04:59:55;;;;;;;68.00;62.50;;;19.70;99.90;;;;;;5055241;28;20436;-71
2023/09/29 05:02:21;;;;;;;74.22;69.00;;;19.70;99.90;;;;;;5053667;28;20055;-71
2023/09/29 05:04:47;;;;;;;55.95;51.30;;;19.60;99.90;;;;;;5054288;28;20053;-71
2023/09/29 05:07:14;;;;;;;70.78;65.65;;;19.60;99.90;;;;;;5055376;28;20033;-71
2023/09/29 05:09:40;;;;;;;60.80;56.45;;;19.60;99.90;;;;;;5054811;28;20033;-71
2023/09/29 05:12:06;;;;;;;69.35;64.57;;;19.60;99.90;;;;;;5054221;28;20463;-71
2023/09/29 05:14:32;;;;;;;60.25;55.53;;;19.60;99.90;;;;;;5054459;28;20048;-71
2023/09/29 05:16:59;;;;;;;55.42;51.13;;;19.60;99.90;;;;;;5053555;28;20037;-71
2023/09/29 05:19:25;;;;;;;51.70;47.53;;;19.60;99.90;;;;;;5054871;28;20047;-71
2023/09/29 05:21:51;;;;;;;57.78;53.10;;;19.60;99.90;;;;;;5054079;28;20052;-71
2023/09/29 05:24:17;;;;;;;54.28;50.10;;;19.60;99.90;;;;;;5054443;28;20396;-71
2023/09/29 05:26:43;;;;;;;50.25;46.17;;;19.60;99.90;;;;;;5054275;28;20033;-71
2023/09/29 05:29:10;;;;;;;49.42;45.30;;;19.60;99.90;;;;;;5054763;28;20388;-71
2023/09/29 05:31:36;;;;;;;48.05;43.63;;;19.50;99.90;;;;;;5053405;28;20037;-71
2023/09/29 05:34:02;;;;;;;55.28;50.83;;;19.60;99.90;;;;;;5054543;28;20025;-71
2023/09/29 05:36:29;;;;;;;60.30;55.53;;;19.60;99.90;;;;;;5054309;28;20036;-71
2023/09/29 05:38:56;;;;;;;61.83;56.65;;;19.70;99.90;;;;;;5053840;28;20144;-71
2023/09/29 05:41:22;;;;;;;52.20;47.92;;;19.70;99.90;;;;;;5053702;28;20492;-71
2023/09/29 05:43:48;;;;;;;56.40;51.65;;;19.70;99.90;;;;;;5052479;28;20096;-71
2023/09/29 05:46:14;;;;;;;45.83;42.15;;;19.60;99.90;;;;;;5053434;28;20041;-71
2023/09/29 05:48:40;;;;;;;59.00;54.08;;;19.60;99.90;;;;;;5051841;28;20052;-70
2023/09/29 05:51:06;;;;;;;37.10;33.22;;;19.50;99.90;;;;;;5059920;28;20025;-71
2023/09/29 05:53:33;;;;;;;37.85;34.40;;;19.50;99.90;;;;;;5053604;28;20025;-71
2023/09/29 05:56:06;;;;;;;39.55;36.00;;;19.40;99.90;;;;;;5052527;28;20048;-71
2023/09/29 05:58:32;;;;;;;37.30;34.03;;;19.50;99.90;;;;;;5047289;28;20044;-70
2023/09/29 06:01:09;;;;;;;41.40;37.95;;;19.50;99.90;;;;;;5052467;28;20033;-71
2023/09/29 06:03:37;;;;;;;38.58;35.00;;;19.50;99.90;;;;;;5062738;28;20052;-71
2023/09/29 06:06:03;;;;;;;46.75;42.58;;;19.60;99.90;;;;;;5045535;28;20049;-71
2023/09/29 06:08:29;;;;;;;46.28;41.97;;;19.50;99.90;;;;;;5046019;28;20029;-71
2023/09/29 06:10:56;;;;;;;46.85;42.72;;;19.50;99.90;;;;;;5053490;28;20056;-71
2023/09/29 06:13:22;;;;;;;43.60;39.58;;;19.50;99.90;;;;;;5051001;28;20037;-71
2023/09/29 06:15:48;;;;;;;46.33;42.05;;;19.60;99.90;;;;;;5052737;28;20041;-71
2023/09/29 06:18:15;;;;;;;43.60;40.03;;;19.60;99.90;;;;;;5053264;28;20044;-71
2023/09/29 06:20:41;;;;;;;43.85;40.53;;;19.60;99.90;;;;;;5046081;28;20029;-71
2023/09/29 06:23:07;;;;;;;43.90;40.10;;;19.60;99.90;;;;;;5044940;28;20028;-71
2023/09/29 06:25:33;;;;;;;45.05;41.00;;;19.60;99.90;;;;;;5036767;28;20041;-71
2023/09/29 06:27:59;;;;;;;47.53;43.58;;;19.60;99.90;;;;;;5041399;28;20052;-70
2023/09/29 06:30:25;;;;;;;48.45;44.15;;;19.60;99.90;;;;;;5045351;28;20388;-71
2023/09/29 06:32:51;;;;;;;51.17;46.65;;;19.70;99.90;;;;;;5053540;28;20033;-71
2023/09/29 06:35:18;;;;;;;48.25;43.88;;;19.60;99.90;;;;;;5053290;28;20029;-71
2023/09/29 06:37:44;;;;;;;53.13;48.95;;;19.70;99.90;;;;;;5049839;28;20031;-71
2023/09/29 06:40:11;;;;;;;52.58;48.50;;;19.70;99.90;;;;;;5042775;28;20051;-71
2023/09/29 06:42:38;;;;;;;52.40;47.60;;;19.70;99.90;;;;;;5052910;28;20037;-71
2023/09/29 06:45:07;;;;;;;58.67;53.95;;;19.80;99.90;;;;;;5052716;28;20032;-70
2023/09/29 06:47:34;;;;;;;57.13;52.55;;;19.80;99.90;;;;;;5051319;28;20036;-71
2023/09/29 06:50:00;;;;;;;51.83;47.42;;;19.80;99.90;;;;;;5051378;28;20044;-70
2023/09/29 06:52:27;;;;;;;58.72;53.90;;;19.70;99.90;;;;;;5051880;28;20484;-71
2023/09/29 06:54:53;;;;;;;59.95;55.33;;;19.80;99.90;;;;;;5052872;28;20044;-71
2023/09/29 06:57:20;;;;;;;67.82;62.38;;;19.80;99.90;;;;;;5052786;28;20033;-72
2023/09/29 06:59:46;;;;;;;57.90;53.75;;;19.80;99.90;;;;;;5052402;28;20497;-72
2023/09/29 07:02:12;;;;;;;67.25;62.33;;;19.90;99.90;;;;;;5051776;28;20044;-72
2023/09/29 07:04:39;;;;;;;89.60;83.68;;;20.00;99.90;;;;;;5052250;28;20487;-71
2023/09/29 07:07:05;;;;;;;99.10;92.38;;;20.10;99.90;;;;;;5050328;28;20052;-71
2023/09/29 07:09:31;;;;;;;93.72;87.25;;;20.20;99.90;;;;;;5047080;28;20037;-72
2023/09/29 07:11:57;;;;;;;92.15;86.05;;;20.30;99.90;;;;;;5052083;28;20037;-72
2023/09/29 07:14:23;;;;;;;81.35;75.75;;;20.50;99.90;;;;;;5051840;28;20060;-72
2023/09/29 07:16:52;;;;;;;101.18;94.60;;;20.60;99.90;;;;;;5036703;28;20030;-72
2023/09/29 07:19:18;;;;;;;121.47;114.05;;;20.80;99.90;;;;;;5032464;28;20491;-72
2023/09/29 07:21:44;;;;;;;116.40;109.32;;;20.90;99.90;;;;;;5032217;28;20025;-72
2023/09/29 07:24:11;;;;;;;136.25;127.95;;;21.10;99.90;;;;;;5032602;28;20045;-72
2023/09/29 07:26:38;;;;;;;161.25;151.80;;;21.20;99.90;;;;;;5032220;28;20049;-71
2023/09/29 07:29:04;;;;;;;185.63;174.70;;;21.30;99.90;;;;;;5035645;28;20033;-71
2023/09/29 07:31:38;;;;;;;174.00;163.25;;;21.40;99.90;;;;;;5039664;28;20401;-71
2023/09/29 07:34:04;;;;;;;176.18;166.15;;;21.60;99.90;;;;;;5032130;28;20396;-71
2023/09/29 07:36:33;;;;;;;193.57;183.00;;;21.70;99.90;;;;;;5032418;28;20057;-71
2023/09/29 07:38:59;;;;;;;200.23;189.02;;;21.90;99.90;;;;;;5032782;28;20056;-72
2023/09/29 07:41:25;;;;;;;218.40;206.52;;;21.90;99.90;;;;;;5031715;28;20377;-72
2023/09/29 07:43:52;;;;;;;220.75;208.65;;;22.00;99.90;;;;;;5029458;28;20049;-71
2023/09/29 07:46:18;;;;;;;223.63;211.35;;;22.20;99.90;;;;;;5030741;28;20045;-72
2023/09/29 07:48:44;;;;;;;234.52;221.88;;;22.10;99.90;;;;;;5031084;28;20041;-72
2023/09/29 07:51:10;;;;;;;239.05;225.52;;;22.00;99.90;;;;;;5032686;28;20029;-71
2023/09/29 07:53:36;;;;;;;226.98;214.05;;;21.80;99.90;;;;;;5038844;28;20364;-71
2023/09/29 07:56:02;;;;;;;202.88;191.68;;;21.80;99.90;;;;;;5044030;28;20033;-71
2023/09/29 07:58:28;;;;;;;187.73;176.63;;;21.80;99.90;;;;;;5031914;28;20030;-73
2023/09/29 08:00:54;;;;;;;204.13;192.10;;;21.70;99.90;;;;;;5030817;28;20040;-73
2023/09/29 08:03:21;;;;;;;168.80;158.80;;;21.60;99.90;;;;;;5031146;28;20030;-72
2023/09/29 08:05:47;;;;;;;191.18;179.98;;;21.60;99.90;;;;;;5031678;28;20599;-72
2023/09/29 08:08:13;;;;;;;165.82;156.32;;;21.60;99.90;;;;;;5032124;28;20040;-72
2023/09/29 08:10:39;;;;;;;190.43;178.85;;;21.50;99.90;;;;;;5031874;28;20403;-73
2023/09/29 08:13:05;;;;;;;169.13;159.05;;;21.50;99.90;;;;;;5029820;28;20033;-73
2023/09/29 08:15:31;;;;;;;156.88;148.05;;;21.60;99.90;;;;;;5025111;28;20045;-72
2023/09/29 08:17:58;;;;;;;167.05;157.38;;;21.60;99.90;;;;;;5034947;28;20392;-72
2023/09/29 08:20:24;;;;;;;160.65;151.10;;;21.50;99.90;;;;;;5031338;28;20033;-72
2023/09/29 08:22:50;;;;;;;187.20;175.65;;;21.50;99.90;;;;;;5035992;28;20048;-73
2023/09/29 08:25:16;;;;;;;191.38;180.35;;;21.50;99.90;;;;;;5032018;28;20045;-73
2023/09/29 08:27:42;;;;;;;194.73;183.15;;;21.50;99.90;;;;;;5039111;28;20045;-73
2023/09/29 08:30:09;;;;;;;155.80;146.85;;;21.50;99.90;;;;;;5036285;28;20503;-73
2023/09/29 08:32:37;;;;;;;140.02;131.70;;;21.40;99.90;;;;;;5028408;28;20037;-68
2023/09/29 08:35:04;;;;;;;184.50;173.80;;;21.40;99.90;;;;;;5035735;28;20472;-72
2023/09/29 08:37:30;;;;;;;200.55;188.98;;;21.50;99.90;;;;;;5035750;28;20510;-73
2023/09/29 08:39:57;;;;;;;176.48;166.27;;;21.50;99.90;;;;;;5038102;28;20030;-72
2023/09/29 08:42:40;;;;;;;201.63;189.57;;;21.60;99.90;;;;;;5036120;28;20052;-68
2023/09/29 08:45:10;;;;;;;188.35;177.35;;;21.70;99.90;;;;;;5033678;28;20050;-74
2023/09/29 08:47:36;;;;;;;193.48;182.60;;;21.70;99.90;;;;;;5053990;28;20041;-73
2023/09/29 08:50:06;;;;;;;203.45;191.60;;;21.60;99.90;;;;;;5052504;28;20483;-73
2023/09/29 08:52:32;;;;;;;177.40;167.27;;;21.50;99.90;;;;;;5052217;28;20036;-72
2023/09/29 08:54:59;;;;;;;209.15;197.00;;;21.50;99.90;;;;;;5053714;28;20033;-73
2023/09/29 08:57:25;;;;;;;198.45;186.95;;;21.60;99.90;;;;;;5053348;28;20447;-73
2023/09/29 08:59:55;;;;;;;162.05;152.45;;;21.60;99.90;;;;;;5051132;28;20498;-72
2023/09/29 09:02:21;;;;;;;178.82;168.52;;;21.50;99.90;;;;;;5034904;28;20045;-73
2023/09/29 09:04:48;;;;;;;162.80;153.18;;;21.50;99.90;;;;;;5036667;28;20036;-72
2023/09/29 09:07:17;;;;;;;167.25;157.27;;;21.50;99.90;;;;;;5035251;28;20053;-73
2023/09/29 09:09:52;;;;;;;162.10;152.30;;;21.60;99.90;;;;;;5038419;28;20044;-73
2023/09/29 09:12:18;;;;;;;156.43;146.73;;;21.60;99.90;;;;;;5042709;28;20384;-73
2023/09/29 09:14:45;;;;;;;162.43;153.07;;;21.50;99.90;;;;;;5038284;28;20042;-73
2023/09/29 09:17:11;;;;;;;198.27;186.65;;;21.60;99.90;;;;;;5033900;28;20041;-72
2023/09/29 09:19:45;;;;;;;191.88;180.88;;;21.70;99.90;;;;;;5034375;28;20037;-73
2023/09/29 09:22:14;;;;;;;209.88;197.23;;;22.00;99.90;;;;;;5049784;28;20048;-73
2023/09/29 09:24:41;;;;;;;221.43;209.15;;;22.10;99.90;;;;;;5052137;28;20104;-73
2023/09/29 09:27:07;;;;;;;236.52;223.63;;;22.20;99.90;;;;;;5034340;28;20060;-74
2023/09/29 09:29:41;;;;;;;257.33;243.02;;;22.30;99.90;;;;;;5026225;28;20046;-73
2023/09/29 09:32:07;;;;;;;276.83;261.90;;;22.40;99.90;;;;;;5028661;28;20032;-73
2023/09/29 09:34:36;;;;;;;295.13;278.92;;;22.50;99.90;;;;;;5029134;28;20030;-73
2023/09/29 09:37:03;;;;;;;300.23;284.25;;;22.60;99.90;;;;;;5028629;28;20041;-74
2023/09/29 09:39:29;;;;;;;309.67;292.52;;;22.60;99.90;;;;;;5031029;28;20025;-73
2023/09/29 09:41:56;;;;;;;319.40;302.05;;;22.60;99.90;;;;;;5032856;28;20033;-73
2023/09/29 09:44:23;;;;;;;317.50;299.80;;;22.70;99.90;;;;;;5033271;28;20056;-74
2023/09/29 09:47:00;;;;;;;318.13;300.77;;;22.70;99.90;;;;;;5031967;28;20045;-72
2023/09/29 09:49:36;;;;;;;309.10;292.85;;;22.70;99.90;;;;;;5039860;28;20036;-74
2023/09/29 09:52:06;;;;;;;309.42;292.90;;;22.40;99.90;;;;;;5037744;28;20045;-74
2023/09/29 09:54:35;;;;;;;290.23;274.00;;;22.10;99.90;;;;;;5028048;28;20022;-73
2023/09/29 09:57:06;;;;;;;267.13;253.20;;;21.90;99.90;;;;;;5023842;28;20039;-74
2023/09/29 09:59:33;;;;;;;249.23;235.07;;;21.80;99.90;;;;;;5044678;28;20045;-74
2023/09/29 10:01:59;;;;;;;251.18;236.98;;;21.70;99.90;;;;;;5040434;28;20044;-74
2023/09/29 10:04:28;;;;;;;220.35;207.30;;;21.70;99.90;;;;;;5010441;28;20026;-74
2023/09/29 10:06:56;;;;;;;209.75;197.82;;;21.70;99.90;;;;;;5036858;28;20500;-74
2023/09/29 10:09:22;;;;;;;180.18;169.43;;;21.70;99.90;;;;;;5018023;28;20067;-74
2023/09/29 10:11:58;;;;;;;168.77;159.25;;;21.70;99.90;;;;;;5038160;28;20510;-74
2023/09/29 10:14:24;;;;;;;203.82;192.00;;;21.70;99.90;;;;;;5016235;28;20481;-74
2023/09/29 10:17:03;;;;;;;206.93;195.27;;;21.70;99.90;;;;;;5036966;28;20033;-74
2023/09/29 10:19:39;;;;;;;191.73;180.57;;;21.90;99.90;;;;;;5049506;28;20033;-74
2023/09/29 10:22:08;;;;;;;158.88;149.02;;;21.90;99.90;;;;;;5037748;28;20033;-74
2023/09/29 10:24:35;;;;;;;193.90;182.35;;;21.90;99.90;;;;;;5034065;28;20041;-73
2023/09/29 10:27:11;;;;;;;182.23;171.48;;;21.90;99.90;;;;;;5043716;28;20057;-74
2023/09/29 10:29:38;;;;;;;226.25;213.45;;;21.90;99.90;;;;;;5033784;28;20397;-73
2023/09/29 10:32:11;;;;;;;216.27;203.88;;;22.00;99.90;;;;;;5030270;28;20025;-75
2023/09/29 10:34:37;;;;;;;234.50;220.98;;;22.10;99.90;;;;;;5029510;28;20477;-74
2023/09/29 10:37:03;;;;;;;268.88;253.75;;;22.20;99.90;;;;;;5034792;28;20025;-74
2023/09/29 10:39:30;;;;;;;251.40;237.98;;;22.20;99.90;;;;;;5032596;28;20377;-73
2023/09/29 10:42:12;;;;;;;248.88;235.20;;;22.10;99.90;;;;;;5031583;28;20049;-68
2023/09/29 10:44:55;;;;;;;221.93;209.18;;;22.00;99.90;;;;;;5014656;28;20429;-67
2023/09/29 10:47:35;;;;;;;225.18;212.65;;;22.10;99.90;;;;;;5029043;28;20412;-71
2023/09/29 10:50:02;;;;;;;252.43;238.02;;;22.10;99.90;;;;;;5034313;28;20033;-70
2023/09/29 10:52:29;;;;;;;267.67;253.27;;;22.20;99.90;;;;;;5030734;28;20492;-71
2023/09/29 10:54:58;;;;;;;275.13;259.80;;;22.20;99.90;;;;;;5024935;28;20041;-71
2023/09/29 10:57:28;;;;;;;261.15;246.38;;;22.20;99.90;;;;;;5032309;28;20050;-67
2023/09/29 10:59:59;;;;;;;269.90;254.47;;;22.30;99.90;;;;;;5036294;28;20052;-72
2023/09/29 11:02:35;;;;;;;257.25;242.88;;;22.20;99.90;;;;;;5032382;28;20057;-70
2023/09/29 11:05:09;;;;;;;216.25;204.52;;;22.20;99.90;;;;;;5029837;28;20748;-69
2023/09/29 11:07:46;;;;;;;251.18;237.00;;;22.20;99.90;;;;;;5031558;28;20062;-69
2023/09/29 11:10:13;;;;;;;232.45;219.20;;;22.20;99.90;;;;;;5030863;28;20029;-71
2023/09/29 11:12:43;;;;;;;256.33;242.10;;;22.10;99.90;;;;;;5031046;28;20029;-75
2023/09/29 11:15:10;;;;;;;216.88;204.98;;;22.20;99.90;;;;;;5031428;28;20037;-73
2023/09/29 11:17:50;;;;;;;233.40;220.68;;;22.20;99.90;;;;;;5024948;28;20372;-74
2023/09/29 11:20:26;;;;;;;245.70;231.83;;;22.20;99.90;;;;;;5031043;28;20061;-74
2023/09/29 11:22:59;;;;;;;247.90;234.32;;;22.30;99.90;;;;;;5032259;28;20041;-72
2023/09/29 11:25:25;;;;;;;274.83;259.48;;;22.40;99.90;;;;;;5027135;28;20037;-69
2023/09/29 11:27:52;;;;;;;276.45;261.30;;;22.50;99.90;;;;;;5035292;28;20037;-67
2023/09/29 11:30:24;;;;;;;265.27;250.82;;;22.50;99.90;;;;;;5029729;28;20037;-68
2023/09/29 11:32:51;;;;;;;205.90;194.00;;;22.40;99.90;;;;;;5037755;28;20032;-68
2023/09/29 11:35:18;;;;;;;217.13;205.68;;;22.40;99.90;;;;;;5029832;28;20041;-68
2023/09/29 11:37:46;;;;;;;204.75;193.93;;;22.30;99.90;;;;;;5035967;28;20383;-69
2023/09/29 11:40:12;;;;;;;235.43;222.80;;;22.50;99.90;;;;;;5047744;28;20029;-68
2023/09/29 11:42:39;;;;;;;249.88;236.73;;;22.60;99.90;;;;;;5031810;28;20042;-69
2023/09/29 11:45:08;;;;;;;246.18;233.20;;;22.70;99.90;;;;;;5022696;28;20038;-68
2023/09/29 11:47:37;;;;;;;236.38;223.93;;;22.60;99.90;;;;;;5046267;28;20533;-68
2023/09/29 11:50:03;;;;;;;244.75;231.65;;;22.60;99.90;;;;;;5050965;28;20033;-68
2023/09/29 11:52:30;;;;;;;275.40;260.73;;;22.60;99.90;;;;;;5050863;28;20041;-68
2023/09/29 11:54:56;;;;;;;270.23;255.85;;;22.60;99.90;;;;;;5051342;28;20025;-69
2023/09/29 11:57:22;;;;;;;284.80;270.00;;;22.60;99.90;;;;;;5050389;28;20040;-69
2023/09/29 11:59:48;;;;;;;279.45;264.35;;;22.60;99.90;;;;;;5057130;28;20024;-69
2023/09/29 12:02:14;;;;;;;233.85;220.95;;;22.60;99.90;;;;;;5034361;28;20040;-69
2023/09/29 12:04:41;;;;;;;256.77;242.85;;;22.70;99.90;;;;;;5030460;28;20025;-69
2023/09/29 12:07:07;;;;;;;226.15;214.02;;;22.80;99.90;;;;;;5033879;28;20040;-69
2023/09/29 12:09:34;;;;;;;282.60;267.45;;;22.80;99.90;;;;;;5040577;28;20036;-69
2023/09/29 12:12:00;;;;;;;283.98;268.92;;;22.90;99.90;;;;;;5038930;28;20033;-68
2023/09/29 12:14:27;;;;;;;314.65;297.73;;;22.90;99.90;;;;;;5036011;28;20045;-69
2023/09/29 12:16:53;;;;;;;305.25;288.85;;;22.90;99.90;;;;;;5030687;28;20040;-69
2023/09/29 12:19:22;;;;;;;320.95;304.13;;;23.00;99.90;;;;;;5028962;28;20408;-69
2023/09/29 12:21:48;;;;;;;319.90;303.10;;;23.10;99.90;;;;;;5033599;28;20033;-69
2023/09/29 12:24:14;;;;;;;321.83;304.92;;;23.10;99.90;;;;;;5028766;28;20353;-69